Renaissance — FLSE — position and weather

sailwx.info

Track history (hours):
 
Tides and Currents Weather Stations Pressure Air Temp Water Temp Dewpoint Dewpoint Depression Visibility Wind Speed Wind Dir Waves Ship Positions

Renaissance

Last reported at 2018-Jul-20 13:52 UTC. Time now 2018-Jul-21 19:16 UTC.
Position N 47°43' W 003°22'.

Length 16 m.

Type: Dredging. MMSI: 228333600.

Date/timePositionNaut miles runAvg speedWind from/ knotsBaromVisibWave heightAir tempDewpointWater temp
2018-Jul-20 13:52N 47°43' W 003°22'0 0.0
2018-Jul-20 13:28N 47°43' W 003°22'0 0.0
2018-Jul-20 12:58N 47°43' W 003°22'  
2018-Jul-14 09:47N 47°43' W 003°22'0 0.0
2018-Jul-14 09:29N 47°43' W 003°22'0 0.0
2018-Jul-14 08:59N 47°43' W 003°22'0 0.0
2018-Jul-14 08:27N 47°43' W 003°22'0 0.8
2018-Jul-14 08:00N 47°43' W 003°22'2 3.6
2018-Jul-14 07:30N 47°41' W 003°24'2 4.6
2018-Jul-14 06:58N 47°40' W 003°26'1 1.6
2018-Jul-14 06:23N 47°41' W 003°26'0 0.7
2018-Jul-14 05:55N 47°41' W 003°27'0 0.5
2018-Jul-14 05:30N 47°41' W 003°27'8 1.0
2018-Jul-13 21:36N 47°34' W 003°32'2 2.9
2018-Jul-13 20:50N 47°34' W 003°29'1 2.5
2018-Jul-13 20:31N 47°34' W 003°28'2 3.0
2018-Jul-13 20:00N 47°34' W 003°25'2 3.4
2018-Jul-13 19:29N 47°32' W 003°25'2 3.3
2018-Jul-13 18:58N 47°31' W 003°25'2 3.2
2018-Jul-13 18:30N 47°29' W 003°24'3 2.1
2018-Jul-13 17:09N 47°27' W 003°23'1 4.2
2018-Jul-13 16:51N 47°27' W 003°21'2 5.0
2018-Jul-13 16:29N 47°28' W 003°19'2 4.7
2018-Jul-13 16:00N 47°30' W 003°16'2 4.7
2018-Jul-13 15:30N 47°32' W 003°15'3 5.1
2018-Jul-13 15:00N 47°34' W 003°17'2 4.1
2018-Jul-13 14:30N 47°36' W 003°19'4 4.3
2018-Jul-13 13:30N 47°39' W 003°23'2 3.4
2018-Jul-13 13:00N 47°41' W 003°24'2 3.3
2018-Jul-13 12:30N 47°42' W 003°22'1 1.9
2018-Jul-13 11:58N 47°43' W 003°22'0 0.0
2018-Jul-13 11:28N 47°43' W 003°22'0 0.0
2018-Jul-13 10:55N 47°43' W 003°22'0 0.0
2018-Jul-13 10:28N 47°43' W 003°22'0 0.0
2018-Jul-13 09:58N 47°43' W 003°22'0 0.0
2018-Jul-13 09:28N 47°43' W 003°22'0 0.0
2018-Jul-12 13:29N 47°43' W 003°22'0 0.9
2018-Jul-12 13:00N 47°43' W 003°22'2 4.7
2018-Jul-12 12:30N 47°40' W 003°23'2 3.4
2018-Jul-12 11:58N 47°39' W 003°24'2 3.3
2018-Jul-12 11:30N 47°37' W 003°23'3 2.2
2018-Jul-12 10:17N 47°36' W 003°27'2 0.2
2018-Jul-12 03:12N 47°37' W 003°29'0 1.9
2018-Jul-12 02:57N 47°36' W 003°29'2 4.2
2018-Jul-12 02:30N 47°34' W 003°27'3 4.9
2018-Jul-12 01:55N 47°32' W 003°25'2 4.5
2018-Jul-12 01:26N 47°31' W 003°22'2 4.7
2018-Jul-12 00:56N 47°29' W 003°20'2 3.9
2018-Jul-12 00:29N 47°28' W 003°18'11 0.3
2018-Jul-10 16:19N 47°21' W 003°05'2 5.3
2018-Jul-10 15:57N 47°21' W 003°08'  
Track history (hours):
 
Tides and Currents Weather Stations Pressure Air Temp Water Temp Dewpoint Dewpoint Depression Visibility Wind Speed Wind Dir Waves Ship Positions

Renaissance

Last reported at 2018-Jul-20 13:52 UTC. Time now 2018-Jul-21 19:16 UTC.
Position N 47°43' W 003°22'.

Length 16 m.

Type: Dredging. MMSI: 228333600.

Date/timePositionNaut miles runAvg speedWind from/ knotsBaromVisibWave heightAir tempDewpointWater temp
2018-Jul-20 13:52N 47°43' W 003°22'0 0.0
2018-Jul-20 13:28N 47°43' W 003°22'0 0.0
2018-Jul-20 12:58N 47°43' W 003°22'  
2018-Jul-14 09:47N 47°43' W 003°22'0 0.0
2018-Jul-14 09:29N 47°43' W 003°22'0 0.0
2018-Jul-14 08:59N 47°43' W 003°22'0 0.0
2018-Jul-14 08:27N 47°43' W 003°22'0 0.8
2018-Jul-14 08:00N 47°43' W 003°22'2 3.6
2018-Jul-14 07:30N 47°41' W 003°24'2 4.6
2018-Jul-14 06:58N 47°40' W 003°26'1 1.6
2018-Jul-14 06:23N 47°41' W 003°26'0 0.7
2018-Jul-14 05:55N 47°41' W 003°27'0 0.5
2018-Jul-14 05:30N 47°41' W 003°27'8 1.0
2018-Jul-13 21:36N 47°34' W 003°32'2 2.9
2018-Jul-13 20:50N 47°34' W 003°29'1 2.5
2018-Jul-13 20:31N 47°34' W 003°28'2 3.0
2018-Jul-13 20:00N 47°34' W 003°25'2 3.4
2018-Jul-13 19:29N 47°32' W 003°25'2 3.3
2018-Jul-13 18:58N 47°31' W 003°25'2 3.2
2018-Jul-13 18:30N 47°29' W 003°24'3 2.1
2018-Jul-13 17:09N 47°27' W 003°23'1 4.2
2018-Jul-13 16:51N 47°27' W 003°21'2 5.0
2018-Jul-13 16:29N 47°28' W 003°19'2 4.7
2018-Jul-13 16:00N 47°30' W 003°16'2 4.7
2018-Jul-13 15:30N 47°32' W 003°15'3 5.1
2018-Jul-13 15:00N 47°34' W 003°17'2 4.1
2018-Jul-13 14:30N 47°36' W 003°19'4 4.3
2018-Jul-13 13:30N 47°39' W 003°23'2 3.4
2018-Jul-13 13:00N 47°41' W 003°24'2 3.3
2018-Jul-13 12:30N 47°42' W 003°22'1 1.9
2018-Jul-13 11:58N 47°43' W 003°22'0 0.0
2018-Jul-13 11:28N 47°43' W 003°22'0 0.0
2018-Jul-13 10:55N 47°43' W 003°22'0 0.0
2018-Jul-13 10:28N 47°43' W 003°22'0 0.0
2018-Jul-13 09:58N 47°43' W 003°22'0 0.0
2018-Jul-13 09:28N 47°43' W 003°22'0 0.0
2018-Jul-12 13:29N 47°43' W 003°22'0 0.9
2018-Jul-12 13:00N 47°43' W 003°22'2 4.7
2018-Jul-12 12:30N 47°40' W 003°23'2 3.4
2018-Jul-12 11:58N 47°39' W 003°24'2 3.3
2018-Jul-12 11:30N 47°37' W 003°23'3 2.2
2018-Jul-12 10:17N 47°36' W 003°27'2 0.2
2018-Jul-12 03:12N 47°37' W 003°29'0 1.9
2018-Jul-12 02:57N 47°36' W 003°29'2 4.2
2018-Jul-12 02:30N 47°34' W 003°27'3 4.9
2018-Jul-12 01:55N 47°32' W 003°25'2 4.5
2018-Jul-12 01:26N 47°31' W 003°22'2 4.7
2018-Jul-12 00:56N 47°29' W 003°20'2 3.9
2018-Jul-12 00:29N 47°28' W 003°18'11 0.3
2018-Jul-10 16:19N 47°21' W 003°05'2 5.3
2018-Jul-10 15:57N 47°21' W 003°08'  

Dump ship's entire track history